Time;durP1;ratioP1;P1;durP2;ratioP2;P2;SDS_P1;SDS_P2;PMS_P1;PMS_P2;Temp;Humidity;BMP_temperature;BMP_pressure;BME280_temperature;BME280_humidity;BME280_pressure;Samples;Min_cycle;Max_cycle;Signal;HPM_P1;HPM_P2
2021/10/17 00:01:00;;;;;;;24.58;14.35;;;10.60;99.90;;;;;;5080378;28;20199;-47
2021/10/17 00:03:27;;;;;;;24.63;16.48;;;10.50;99.90;;;;;;5080226;28;20472;-47
2021/10/17 00:05:54;;;;;;;26.75;15.40;;;10.50;99.90;;;;;;5079949;28;20262;-42
2021/10/17 00:08:21;;;;;;;25.52;15.88;;;10.40;99.90;;;;;;5080285;28;20195;-41
2021/10/17 00:10:49;;;;;;;26.08;16.70;;;10.50;99.90;;;;;;5080427;28;20199;-48
2021/10/17 00:13:16;;;;;;;24.65;15.73;;;10.50;99.90;;;;;;5079804;28;20219;-47
2021/10/17 00:15:43;;;;;;;24.00;16.38;;;10.20;99.90;;;;;;5080308;28;20217;-52
2021/10/17 00:18:10;;;;;;;23.85;15.00;;;10.30;99.90;;;;;;5080200;28;20204;-44
2021/10/17 00:20:38;;;;;;;21.48;13.80;;;10.40;99.90;;;;;;5086337;28;20202;-48
2021/10/17 00:23:05;;;;;;;21.30;15.18;;;10.40;99.90;;;;;;5083356;28;20219;-48
2021/10/17 00:25:33;;;;;;;27.38;14.82;;;10.40;99.90;;;;;;5079890;28;20223;-48
2021/10/17 00:28:01;;;;;;;27.58;14.80;;;10.40;99.90;;;;;;5080119;28;20417;-49
2021/10/17 00:30:28;;;;;;;25.88;14.23;;;10.40;99.90;;;;;;5080339;28;20210;-48
2021/10/17 00:32:55;;;;;;;18.73;13.13;;;10.30;99.90;;;;;;5079643;28;20632;-40
2021/10/17 00:35:22;;;;;;;21.73;12.80;;;10.10;99.90;;;;;;5080286;28;20641;-47
2021/10/17 00:37:50;;;;;;;21.77;12.93;;;10.20;99.90;;;;;;5080215;28;20203;-52
2021/10/17 00:40:19;;;;;;;19.48;16.17;;;10.40;99.90;;;;;;5079816;28;20205;-46
2021/10/17 00:42:48;;;;;;;19.42;12.77;;;10.40;99.90;;;;;;5081028;28;20204;-44
2021/10/17 00:45:20;;;;;;;22.25;12.85;;;10.50;99.90;;;;;;5080017;28;20560;-43
2021/10/17 00:47:49;;;;;;;26.75;14.57;;;10.50;99.90;;;;;;5052027;28;20282;-45
2021/10/17 00:50:16;;;;;;;17.42;12.27;;;10.50;99.90;;;;;;5079794;28;20194;-46
2021/10/17 00:52:44;;;;;;;17.15;12.18;;;10.40;99.90;;;;;;5074834;28;20500;-48
2021/10/17 00:55:13;;;;;;;23.38;14.52;;;10.50;99.90;;;;;;5078771;28;20498;-43
2021/10/17 00:57:42;;;;;;;21.48;13.60;;;10.40;99.90;;;;;;5079482;28;20237;-44
2021/10/17 01:00:11;;;;;;;19.92;12.35;;;10.50;99.90;;;;;;5073768;28;20425;-43
2021/10/17 01:02:39;;;;;;;18.58;12.75;;;10.40;99.90;;;;;;5077888;28;20560;-44
2021/10/17 01:05:13;;;;;;;20.45;13.02;;;10.10;99.90;;;;;;5079717;28;20372;-44
2021/10/17 01:07:40;;;;;;;18.85;13.52;;;10.20;99.90;;;;;;5079645;28;20285;-45
2021/10/17 01:10:07;;;;;;;17.65;11.68;;;10.40;99.90;;;;;;5079473;28;20200;-45
2021/10/17 01:12:35;;;;;;;26.83;12.93;;;10.40;99.90;;;;;;5079616;28;20379;-44
2021/10/17 01:15:02;;;;;;;18.67;11.70;;;10.40;99.90;;;;;;5074327;28;20211;-48
2021/10/17 01:17:30;;;;;;;23.48;12.75;;;10.50;99.90;;;;;;5083690;28;20311;-47
2021/10/17 01:19:57;;;;;;;16.02;11.85;;;10.30;99.90;;;;;;5082716;28;20245;-40
2021/10/17 01:22:25;;;;;;;19.95;11.70;;;10.40;99.90;;;;;;5083518;28;20204;-43
2021/10/17 01:24:53;;;;;;;17.25;11.50;;;10.50;99.90;;;;;;5082216;28;20230;-47
2021/10/17 01:27:21;;;;;;;18.10;10.57;;;10.60;99.90;;;;;;5078688;28;20300;-51
2021/10/17 01:29:48;;;;;;;19.73;11.88;;;10.70;99.90;;;;;;5086710;28;20197;-44
2021/10/17 01:32:16;;;;;;;21.70;11.95;;;10.70;99.90;;;;;;5085971;28;20250;-49
2021/10/17 01:34:43;;;;;;;17.75;12.20;;;10.70;99.90;;;;;;5079507;28;20588;-47
2021/10/17 01:37:10;;;;;;;19.38;12.45;;;10.70;99.90;;;;;;5082355;28;20212;-45
2021/10/17 01:39:37;;;;;;;16.40;10.95;;;10.70;99.90;;;;;;5076579;28;20669;-47
2021/10/17 01:42:04;;;;;;;20.13;12.00;;;10.70;99.90;;;;;;5080265;28;20209;-43
2021/10/17 01:44:34;;;;;;;18.23;10.30;;;10.70;99.90;;;;;;5083059;28;20528;-42
2021/10/17 01:47:04;;;;;;;28.45;11.13;;;10.70;99.90;;;;;;5080967;28;20262;-45
2021/10/17 01:52:55;;;;;;;17.92;11.35;;;10.60;99.90;;;;;;5079900;28;20216;-45
2021/10/17 01:55:23;;;;;;;18.45;11.18;;;10.40;99.90;;;;;;5083001;28;20583;-45
2021/10/17 01:57:50;;;;;;;16.15;10.05;;;10.50;99.90;;;;;;5083530;28;20199;-47
2021/10/17 02:00:17;;;;;;;14.68;10.13;;;10.60;99.90;;;;;;5082437;28;20203;-51
2021/10/17 02:02:50;;;;;;;20.55;10.70;;;10.50;99.90;;;;;;5086068;28;20199;-46
2021/10/17 02:05:18;;;;;;;16.08;10.75;;;10.40;99.90;;;;;;5077167;28;20418;-48
2021/10/17 02:07:45;;;;;;;16.92;12.18;;;10.30;99.90;;;;;;5074306;28;20579;-44
2021/10/17 02:10:12;;;;;;;21.33;11.27;;;10.40;99.90;;;;;;5082786;28;20258;-50
2021/10/17 02:12:39;;;;;;;18.60;12.10;;;10.50;99.90;;;;;;5078867;28;20219;-43
2021/10/17 02:15:07;;;;;;;17.20;11.48;;;10.60;99.90;;;;;;5080426;28;20205;-43
2021/10/17 02:17:34;;;;;;;21.02;10.90;;;10.60;99.90;;;;;;5075243;28;20386;-47
2021/10/17 02:20:02;;;;;;;18.90;9.73;;;10.40;99.90;;;;;;5081358;28;20383;-44
2021/10/17 02:22:29;;;;;;;24.63;13.13;;;10.40;99.90;;;;;;5083599;28;20209;-48
2021/10/17 02:24:57;;;;;;;20.75;12.77;;;10.50;99.90;;;;;;5081154;28;20265;-44
2021/10/17 02:27:24;;;;;;;23.08;13.35;;;10.60;99.90;;;;;;5081693;28;20224;-48
2021/10/17 02:29:51;;;;;;;19.92;10.57;;;10.70;99.90;;;;;;5081567;28;20257;-50
2021/10/17 02:32:18;;;;;;;24.70;11.93;;;10.70;99.90;;;;;;5081608;28;20232;-45
2021/10/17 02:34:45;;;;;;;13.98;10.43;;;10.70;99.90;;;;;;5074457;28;20215;-42
2021/10/17 02:37:12;;;;;;;15.07;11.30;;;10.70;99.90;;;;;;5082058;28;20563;-42
2021/10/17 02:39:39;;;;;;;20.42;10.70;;;10.60;99.90;;;;;;5075026;28;20257;-46
2021/10/17 02:42:06;;;;;;;15.00;10.55;;;10.50;99.90;;;;;;5081321;28;20272;-48
2021/10/17 02:44:33;;;;;;;13.52;11.23;;;10.60;99.90;;;;;;5081334;28;20266;-48
2021/10/17 02:47:00;;;;;;;21.52;11.90;;;10.50;99.90;;;;;;5079598;28;20227;-47
2021/10/17 02:49:28;;;;;;;23.45;12.10;;;10.60;99.90;;;;;;5081579;28;20258;-50
2021/10/17 02:51:55;;;;;;;15.52;11.02;;;10.60;99.90;;;;;;5074634;28;20199;-51
2021/10/17 02:54:24;;;;;;;21.15;12.30;;;10.60;99.90;;;;;;5081362;28;20223;-47
2021/10/17 02:56:51;;;;;;;14.88;11.35;;;10.60;99.90;;;;;;5080970;28;20211;-48
2021/10/17 02:59:19;;;;;;;18.25;12.80;;;10.50;99.90;;;;;;5070324;28;20246;-47
2021/10/17 03:01:46;;;;;;;21.20;13.10;;;10.50;99.90;;;;;;5081242;28;20247;-45
2021/10/17 03:04:13;;;;;;;17.25;11.88;;;10.50;99.90;;;;;;5081096;28;20233;-43
2021/10/17 03:06:40;;;;;;;20.92;13.80;;;10.50;99.90;;;;;;5080987;28;20267;-47
2021/10/17 03:09:07;;;;;;;21.05;13.07;;;10.50;99.90;;;;;;5080229;28;20199;-45
2021/10/17 03:11:35;;;;;;;16.55;10.23;;;10.50;99.90;;;;;;5080870;28;20437;-50
2021/10/17 03:14:03;;;;;;;23.15;12.57;;;10.40;99.90;;;;;;5075946;28;20216;-46
2021/10/17 03:16:31;;;;;;;23.73;11.98;;;10.50;99.90;;;;;;5074445;28;20203;-46
2021/10/17 03:18:58;;;;;;;20.15;12.10;;;10.50;99.90;;;;;;5081080;28;20213;-50
2021/10/17 03:21:26;;;;;;;20.15;11.55;;;10.50;99.90;;;;;;5080412;28;20201;-47
2021/10/17 03:23:53;;;;;;;17.98;12.93;;;10.50;99.90;;;;;;5080683;28;20224;-45
2021/10/17 03:26:20;;;;;;;23.17;10.77;;;10.40;99.90;;;;;;5074951;28;20548;-45
2021/10/17 03:28:47;;;;;;;17.13;12.02;;;10.40;99.90;;;;;;5080638;28;20195;-46
2021/10/17 03:31:15;;;;;;;13.75;10.40;;;10.50;99.90;;;;;;5075527;28;20199;-45
2021/10/17 03:33:42;;;;;;;19.45;13.20;;;10.50;99.90;;;;;;5078944;28;20222;-45
2021/10/17 03:36:09;;;;;;;19.35;11.82;;;10.50;99.90;;;;;;5080248;28;20240;-45
2021/10/17 03:38:37;;;;;;;15.90;11.25;;;10.40;99.90;;;;;;5079764;28;20265;-43
2021/10/17 03:41:05;;;;;;;20.55;10.68;;;10.60;99.90;;;;;;5080607;28;20252;-44
2021/10/17 03:43:32;;;;;;;22.95;13.77;;;10.60;99.90;;;;;;5075233;28;20227;-47
2021/10/17 03:45:59;;;;;;;19.13;11.68;;;10.40;99.90;;;;;;5075334;28;20203;-45
2021/10/17 03:48:26;;;;;;;19.80;13.27;;;10.40;99.90;;;;;;5071664;28;20249;-44
2021/10/17 03:50:54;;;;;;;22.83;14.27;;;10.50;99.90;;;;;;5079574;28;20208;-51
2021/10/17 03:53:21;;;;;;;19.02;13.25;;;10.50;99.90;;;;;;5080082;28;20216;-45
2021/10/17 03:55:48;;;;;;;20.10;14.43;;;10.50;99.90;;;;;;5080019;28;20232;-49
2021/10/17 03:58:16;;;;;;;20.85;12.95;;;10.60;99.90;;;;;;5080095;28;20245;-48
2021/10/17 04:00:44;;;;;;;20.55;13.38;;;10.60;99.90;;;;;;5079928;28;20209;-45
2021/10/17 04:03:11;;;;;;;18.92;12.00;;;10.60;99.90;;;;;;5074426;28;20227;-43
2021/10/17 04:05:38;;;;;;;20.88;14.00;;;10.50;99.90;;;;;;5080213;28;20215;-43
2021/10/17 04:08:06;;;;;;;22.40;13.63;;;10.30;99.90;;;;;;5080396;28;20235;-44
2021/10/17 04:10:34;;;;;;;17.92;12.65;;;10.40;99.90;;;;;;5080534;28;20212;-45
2021/10/17 04:13:02;;;;;;;24.45;14.18;;;10.50;99.90;;;;;;5077443;28;20216;-47
2021/10/17 04:15:31;;;;;;;24.15;14.52;;;10.40;99.90;;;;;;5080137;28;20218;-48
2021/10/17 04:17:58;;;;;;;20.42;12.82;;;10.30;99.90;;;;;;5074477;28;20200;-44
2021/10/17 04:20:26;;;;;;;19.05;13.57;;;10.40;99.90;;;;;;5074015;28;20435;-49
2021/10/17 04:22:53;;;;;;;20.75;13.65;;;10.30;99.90;;;;;;5076976;28;20216;-47
2021/10/17 04:25:20;;;;;;;18.02;12.82;;;10.30;99.90;;;;;;5067007;28;20231;-46
2021/10/17 04:27:48;;;;;;;21.73;13.82;;;10.10;99.90;;;;;;5077980;28;20416;-45
2021/10/17 04:30:15;;;;;;;21.98;14.27;;;9.90;99.90;;;;;;5074539;28;20240;-46
2021/10/17 04:32:43;;;;;;;24.65;14.82;;;9.90;99.90;;;;;;5074044;28;20428;-50
2021/10/17 04:35:11;;;;;;;22.77;12.95;;;10.00;99.90;;;;;;5077347;28;20227;-44
2021/10/17 04:37:38;;;;;;;25.33;12.60;;;9.90;99.90;;;;;;5079307;28;20204;-48
2021/10/17 04:40:07;;;;;;;18.42;12.00;;;10.10;99.90;;;;;;5071138;28;20250;-44
2021/10/17 04:42:36;;;;;;;26.80;13.63;;;10.30;99.90;;;;;;5079859;28;20207;-46
2021/10/17 04:45:05;;;;;;;19.55;12.85;;;10.00;99.90;;;;;;5078898;28;20231;-48
2021/10/17 04:47:33;;;;;;;20.10;14.70;;;9.50;99.90;;;;;;5079887;28;20280;-50
2021/10/17 04:50:01;;;;;;;19.25;12.50;;;9.50;99.90;;;;;;5081176;28;20199;-44
2021/10/17 04:52:28;;;;;;;17.42;13.10;;;9.40;99.90;;;;;;5083497;28;20202;-46
2021/10/17 04:54:55;;;;;;;23.60;13.52;;;9.50;99.90;;;;;;5083245;28;20218;-47
2021/10/17 04:57:22;;;;;;;23.98;14.15;;;9.70;99.90;;;;;;5082024;28;20204;-44
2021/10/17 04:59:49;;;;;;;17.40;12.65;;;10.00;99.90;;;;;;5079752;28;20203;-48
2021/10/17 05:02:16;;;;;;;13.13;11.20;;;9.80;99.90;;;;;;5076175;28;20635;-45
2021/10/17 05:04:46;;;;;;;17.45;12.00;;;9.60;99.90;;;;;;5080462;28;20252;-51
2021/10/17 05:07:13;;;;;;;18.95;12.32;;;9.50;99.90;;;;;;5082991;28;20297;-45
2021/10/17 05:09:40;;;;;;;19.70;12.23;;;9.70;99.90;;;;;;5083152;28;20196;-48
2021/10/17 05:12:08;;;;;;;14.50;11.40;;;10.00;99.90;;;;;;5083150;28;20233;-46
2021/10/17 05:14:35;;;;;;;17.88;11.68;;;10.10;99.90;;;;;;5073823;28;20217;-48
2021/10/17 05:17:02;;;;;;;14.75;10.70;;;10.20;99.90;;;;;;5080796;28;20211;-44
2021/10/17 05:19:29;;;;;;;20.88;12.15;;;10.20;99.90;;;;;;5079022;28;20529;-47
2021/10/17 05:21:56;;;;;;;23.67;13.77;;;10.20;99.90;;;;;;5082669;28;20212;-43
2021/10/17 05:24:23;;;;;;;18.63;11.70;;;9.90;99.90;;;;;;5080535;28;20595;-50
2021/10/17 05:26:51;;;;;;;20.13;10.40;;;9.90;99.90;;;;;;5075690;28;20200;-45
2021/10/17 05:29:18;;;;;;;15.73;9.90;;;9.90;99.90;;;;;;5083168;28;20196;-46
2021/10/17 05:31:45;;;;;;;12.20;9.68;;;9.90;99.90;;;;;;5078519;28;20255;-51
2021/10/17 05:34:12;;;;;;;16.45;11.73;;;10.10;99.90;;;;;;5082491;28;20266;-45
2021/10/17 05:36:39;;;;;;;16.60;12.10;;;10.20;99.90;;;;;;5082675;28;20237;-49
2021/10/17 05:39:07;;;;;;;20.20;10.90;;;10.40;99.90;;;;;;5082724;28;20199;-46
2021/10/17 05:41:34;;;;;;;20.67;12.20;;;10.30;99.90;;;;;;5082614;28;20195;-45
2021/10/17 05:44:02;;;;;;;18.98;11.10;;;10.30;99.90;;;;;;5074488;28;20227;-47
2021/10/17 05:46:29;;;;;;;15.65;9.93;;;10.00;99.90;;;;;;5080986;28;20253;-45
2021/10/17 05:48:56;;;;;;;16.40;11.73;;;9.90;99.90;;;;;;5079499;28;20242;-47
2021/10/17 05:51:23;;;;;;;17.65;12.23;;;10.10;99.90;;;;;;5090417;28;20436;-50
2021/10/17 05:53:51;;;;;;;18.05;10.25;;;10.30;99.90;;;;;;5087482;28;20215;-50
2021/10/17 05:56:18;;;;;;;13.88;9.35;;;10.40;99.90;;;;;;5086183;28;20203;-50
2021/10/17 05:58:45;;;;;;;13.68;10.25;;;10.40;99.90;;;;;;5081643;28;20203;-46
2021/10/17 06:01:12;;;;;;;18.80;11.48;;;10.30;99.90;;;;;;5074225;28;20269;-48
2021/10/17 06:03:39;;;;;;;14.60;9.57;;;10.20;99.90;;;;;;5081782;28;20218;-46
2021/10/17 06:06:06;;;;;;;16.17;10.15;;;10.30;99.90;;;;;;5075446;28;20234;-48
2021/10/17 06:08:38;;;;;;;12.65;9.50;;;10.60;99.90;;;;;;5080883;28;20295;-50
2021/10/17 06:11:06;;;;;;;17.25;10.65;;;10.40;99.90;;;;;;5080177;28;20515;-46
2021/10/17 06:13:35;;;;;;;14.32;9.07;;;10.40;99.90;;;;;;5081800;28;20231;-48
2021/10/17 06:16:02;;;;;;;12.77;10.07;;;10.50;99.90;;;;;;5074711;28;20241;-49
2021/10/17 06:18:31;;;;;;;10.93;8.85;;;10.50;99.90;;;;;;5082430;28;20238;-47
2021/10/17 06:20:58;;;;;;;15.32;9.23;;;10.70;99.90;;;;;;5075868;28;20580;-49
2021/10/17 06:23:26;;;;;;;12.73;8.70;;;10.80;99.90;;;;;;5080522;28;20224;-49
2021/10/17 06:25:53;;;;;;;10.75;8.38;;;10.80;99.90;;;;;;5082314;28;20205;-48
2021/10/17 06:28:20;;;;;;;19.67;9.43;;;10.90;99.90;;;;;;5079912;28;20230;-47
2021/10/17 06:30:47;;;;;;;14.73;10.05;;;10.80;99.90;;;;;;5081872;28;20197;-45
2021/10/17 06:33:15;;;;;;;16.77;11.68;;;11.00;99.90;;;;;;5081191;28;20216;-46
2021/10/17 06:35:42;;;;;;;15.07;10.43;;;11.00;99.90;;;;;;5081918;28;20196;-51
2021/10/17 06:38:09;;;;;;;14.05;10.07;;;10.90;99.90;;;;;;5080806;28;20524;-45
2021/10/17 06:40:36;;;;;;;17.77;9.77;;;10.80;99.90;;;;;;5082131;28;20505;-43
2021/10/17 06:43:03;;;;;;;13.70;10.13;;;10.70;99.90;;;;;;5081378;28;20230;-48
2021/10/17 06:45:31;;;;;;;14.10;10.25;;;10.80;99.90;;;;;;5081515;28;20200;-46
2021/10/17 06:47:58;;;;;;;12.23;8.52;;;10.90;99.90;;;;;;5081221;28;20234;-47
2021/10/17 06:50:25;;;;;;;16.42;8.85;;;10.80;99.90;;;;;;5073475;28;20204;-48
2021/10/17 06:52:52;;;;;;;12.55;9.55;;;10.90;99.90;;;;;;5081405;28;20205;-46
2021/10/17 06:55:20;;;;;;;14.45;9.02;;;11.00;99.90;;;;;;5079705;28;20200;-48
2021/10/17 06:57:47;;;;;;;10.65;8.35;;;11.40;99.90;;;;;;5081329;28;20438;-47
2021/10/17 07:00:15;;;;;;;10.90;8.52;;;11.60;99.90;;;;;;5075594;28;20202;-47
2021/10/17 07:02:42;;;;;;;11.68;8.77;;;11.60;99.90;;;;;;5082225;28;20321;-43
2021/10/17 07:05:10;;;;;;;14.90;9.93;;;11.80;99.90;;;;;;5081942;28;20268;-43
2021/10/17 07:07:37;;;;;;;10.23;8.57;;;11.80;99.90;;;;;;5082427;28;20266;-46
2021/10/17 07:10:05;;;;;;;10.50;8.90;;;11.80;99.90;;;;;;5082855;28;20197;-44
2021/10/17 07:12:32;;;;;;;11.02;8.30;;;11.80;99.90;;;;;;5081166;28;20265;-47
2021/10/17 07:15:00;;;;;;;15.10;11.05;;;11.90;99.90;;;;;;5075327;28;20216;-44
2021/10/17 07:17:27;;;;;;;17.80;9.55;;;12.20;99.90;;;;;;5081761;28;20195;-49
2021/10/17 07:19:54;;;;;;;12.95;8.90;;;12.30;99.90;;;;;;5081339;28;20497;-50
2021/10/17 07:22:21;;;;;;;10.45;8.45;;;12.50;99.90;;;;;;5081728;28;20244;-50
2021/10/17 07:24:48;;;;;;;13.15;8.93;;;12.70;99.90;;;;;;5078024;28;20243;-47
2021/10/17 07:27:15;;;;;;;16.60;10.25;;;12.60;99.90;;;;;;5073152;28;20197;-48
2021/10/17 07:29:43;;;;;;;13.98;8.65;;;12.70;99.90;;;;;;5077802;28;20202;-44
2021/10/17 07:32:10;;;;;;;13.00;10.07;;;12.50;99.90;;;;;;5079509;28;20198;-49
2021/10/17 07:34:37;;;;;;;14.90;11.10;;;12.30;99.90;;;;;;5080551;28;20255;-47
2021/10/17 07:37:05;;;;;;;11.00;9.70;;;12.30;99.90;;;;;;5080406;28;20239;-46
2021/10/17 07:39:32;;;;;;;11.43;8.05;;;12.40;99.90;;;;;;5080460;28;20496;-49
2021/10/17 07:41:59;;;;;;;16.85;10.65;;;12.80;99.90;;;;;;5072389;28;20206;-47
2021/10/17 07:44:26;;;;;;;11.45;8.50;;;13.00;99.90;;;;;;5072787;28;20229;-47
2021/10/17 07:46:54;;;;;;;12.15;7.93;;;13.20;99.90;;;;;;5077881;28;20274;-49
2021/10/17 07:49:21;;;;;;;11.40;8.10;;;13.30;99.90;;;;;;5078616;28;20230;-45
2021/10/17 07:51:51;;;;;;;15.63;10.07;;;13.10;99.90;;;;;;5077608;28;20222;-51
2021/10/17 07:54:18;;;;;;;10.27;8.98;;;13.30;99.90;;;;;;5080279;28;20230;-50
2021/10/17 07:56:45;;;;;;;15.43;8.45;;;13.20;99.90;;;;;;5080348;28;20224;-46
2021/10/17 07:59:12;;;;;;;11.80;7.10;;;13.40;99.90;;;;;;5080382;28;20337;-48
2021/10/17 08:01:40;;;;;;;13.25;8.45;;;13.50;99.90;;;;;;5079979;28;20199;-50
2021/10/17 08:06:42;;;;;;;12.82;8.15;;;13.70;99.90;;;;;;5015050;28;20416;-51
2021/10/17 08:09:09;;;;;;;9.20;6.22;;;13.50;99.90;;;;;;5017584;28;20275;-45
2021/10/17 08:11:37;;;;;;;24.48;8.68;;;13.50;99.90;;;;;;5018313;28;20244;-53
2021/10/17 08:14:04;;;;;;;7.78;7.07;;;13.70;99.90;;;;;;5016878;28;20472;-50
2021/10/17 08:16:32;;;;;;;8.48;7.50;;;13.50;99.90;;;;;;5017770;28;20208;-50
2021/10/17 08:18:59;;;;;;;8.40;7.55;;;13.40;99.90;;;;;;5008515;28;20224;-53
2021/10/17 08:21:26;;;;;;;8.38;7.55;;;13.50;99.90;;;;;;5011584;28;20208;-52
2021/10/17 08:23:53;;;;;;;6.65;5.90;;;13.70;99.90;;;;;;5007331;28;20285;-52
2021/10/17 08:26:20;;;;;;;7.45;6.78;;;13.70;99.90;;;;;;5011073;28;20359;-53
2021/10/17 08:28:48;;;;;;;9.75;7.15;;;13.80;99.90;;;;;;5008098;28;20227;-51
2021/10/17 08:31:15;;;;;;;9.07;7.03;;;13.90;99.90;;;;;;5009430;28;20575;-49
2021/10/17 08:33:43;;;;;;;6.30;5.70;;;14.10;99.90;;;;;;5014852;28;20280;-48
2021/10/17 08:36:10;;;;;;;9.32;6.63;;;14.30;99.90;;;;;;5006501;28;20256;-47
2021/10/17 08:38:57;;;;;;;8.93;6.78;;;14.30;99.90;;;;;;5019688;28;20235;-52
2021/10/17 08:41:24;;;;;;;7.90;6.03;;;14.40;99.90;;;;;;5019854;28;20247;-51
2021/10/17 08:43:52;;;;;;;7.95;5.38;;;14.20;99.90;;;;;;5019631;28;20271;-49
2021/10/17 08:46:20;;;;;;;6.85;6.25;;;14.40;99.90;;;;;;5021502;28;20227;-50
2021/10/17 08:48:54;;;;;;;7.35;6.10;;;14.50;99.90;;;;;;5015292;28;20404;-51
2021/10/17 08:51:23;;;;;;;6.78;6.07;;;14.70;99.90;;;;;;5014917;28;20196;-48
2021/10/17 08:53:51;;;;;;;6.57;5.88;;;14.60;99.90;;;;;;5009074;28;20197;-50
2021/10/17 08:56:18;;;;;;;6.68;6.05;;;14.50;99.90;;;;;;5002921;28;20225;-50
2021/10/17 08:58:46;;;;;;;5.95;5.45;;;14.90;99.90;;;;;;5005856;28;20273;-50
2021/10/17 09:01:18;;;;;;;7.38;6.68;;;15.00;99.90;;;;;;5002777;28;20205;-46
2021/10/17 09:03:56;;;;;;;6.43;5.88;;;14.90;99.90;;;;;;5001528;28;20516;-48
2021/10/17 09:06:27;;;;;;;5.85;5.35;;;14.90;99.90;;;;;;5002841;28;20244;-45
2021/10/17 09:09:07;;;;;;;7.50;5.70;;;14.60;99.90;;;;;;5005232;28;20492;-47
2021/10/17 09:11:46;;;;;;;6.63;5.90;;;14.40;99.90;;;;;;5005767;28;20201;-50
2021/10/17 09:14:24;;;;;;;8.52;6.78;;;14.20;99.90;;;;;;5005710;28;20244;-47
2021/10/17 09:16:54;;;;;;;11.00;7.30;;;14.20;99.90;;;;;;5003623;28;20206;-50
2021/10/17 09:19:24;;;;;;;9.27;7.03;;;14.20;99.90;;;;;;5005761;28;20519;-52
2021/10/17 09:21:55;;;;;;;11.13;8.18;;;14.40;99.90;;;;;;5002040;28;20202;-47
2021/10/17 09:24:26;;;;;;;8.45;6.72;;;14.40;99.90;;;;;;5007822;28;20207;-52
2021/10/17 09:27:11;;;;;;;10.32;6.65;;;14.60;99.90;;;;;;5004058;28;20241;-48
2021/10/17 09:29:45;;;;;;;8.75;7.88;;;14.80;99.90;;;;;;5008014;28;20228;-52
2021/10/17 09:32:16;;;;;;;6.85;6.15;;;15.10;99.90;;;;;;5017403;28;20449;-52
2021/10/17 09:34:57;;;;;;;6.70;6.20;;;15.00;99.90;;;;;;5008333;28;20401;-49
2021/10/17 09:37:40;;;;;;;5.88;5.35;;;14.90;99.90;;;;;;5020918;28;20255;-50
2021/10/17 09:40:20;;;;;;;6.70;6.10;;;14.70;99.90;;;;;;5021442;28;20243;-48
2021/10/17 09:43:10;;;;;;;9.60;6.65;;;14.60;99.90;;;;;;5015934;28;20263;-50
2021/10/17 09:45:39;;;;;;;7.13;6.50;;;14.50;99.90;;;;;;5016583;28;20252;-54
2021/10/17 09:48:07;;;;;;;10.43;7.80;;;14.70;99.90;;;;;;5023771;28;20434;-50
2021/10/17 09:50:34;;;;;;;10.98;8.63;;;14.80;99.90;;;;;;5022453;28;20247;-52
2021/10/17 09:53:11;;;;;;;9.85;8.65;;;14.90;99.90;;;;;;5020142;28;20248;-46
2021/10/17 09:55:38;;;;;;;12.77;8.38;;;15.10;99.90;;;;;;5021828;28;20209;-51
2021/10/17 09:58:10;;;;;;;9.65;8.57;;;15.20;99.90;;;;;;5021625;28;20239;-47
2021/10/17 10:00:38;;;;;;;12.75;6.93;;;15.40;99.90;;;;;;5022038;28;20223;-50
2021/10/17 10:03:07;;;;;;;10.25;7.50;;;15.40;99.90;;;;;;5022069;28;20465;-50
2021/10/17 10:05:36;;;;;;;9.20;8.35;;;15.40;99.90;;;;;;5021494;28;20613;-52
2021/10/17 10:08:05;;;;;;;9.75;8.75;;;15.60;99.90;;;;;;5019563;28;20208;-53
2021/10/17 10:10:34;;;;;;;9.52;7.00;;;15.50;99.90;;;;;;5021197;28;20449;-53
2021/10/17 10:13:04;;;;;;;7.93;7.05;;;15.30;99.90;;;;;;5020452;28;20371;-50
2021/10/17 10:15:32;;;;;;;9.65;8.40;;;15.10;99.90;;;;;;5022028;28;20217;-48
2021/10/17 10:18:02;;;;;;;7.85;7.00;;;14.90;99.90;;;;;;5021062;28;20201;-53
2021/10/17 10:20:30;;;;;;;11.80;7.10;;;14.70;99.90;;;;;;5022701;28;20205;-50
2021/10/17 10:22:58;;;;;;;8.60;7.43;;;14.70;99.90;;;;;;5022179;28;20197;-51
2021/10/17 10:25:26;;;;;;;8.98;7.55;;;14.80;99.90;;;;;;5027271;28;20391;-48
2021/10/17 10:27:53;;;;;;;9.80;7.55;;;14.90;99.90;;;;;;5031837;28;20448;-49
2021/10/17 10:30:34;;;;;;;9.25;7.38;;;14.90;99.90;;;;;;5022103;28;20239;-49
2021/10/17 10:33:06;;;;;;;7.15;6.43;;;14.90;99.90;;;;;;5015805;28;20214;-50
2021/10/17 10:35:34;;;;;;;9.18;7.53;;;14.80;99.90;;;;;;5019384;28;20272;-51
2021/10/17 10:38:01;;;;;;;8.90;7.80;;;14.60;99.90;;;;;;5021522;28;20542;-52
2021/10/17 10:40:28;;;;;;;7.78;6.93;;;14.40;99.90;;;;;;5018293;28;20200;-50
2021/10/17 10:43:08;;;;;;;6.57;6.03;;;14.20;99.90;;;;;;5021607;28;20197;-46
2021/10/17 10:45:37;;;;;;;5.80;5.15;;;14.30;99.90;;;;;;5018214;28;20223;-47
2021/10/17 10:48:13;;;;;;;6.55;5.88;;;14.40;99.90;;;;;;5021420;28;20205;-47
2021/10/17 10:50:57;;;;;;;6.63;5.85;;;14.30;99.90;;;;;;5016208;28;20204;-49
2021/10/17 10:53:47;;;;;;;7.25;6.57;;;14.10;99.90;;;;;;5022001;28;20214;-47
2021/10/17 10:56:43;;;;;;;6.10;5.70;;;13.80;99.90;;;;;;5020867;28;20256;-57
2021/10/17 10:59:11;;;;;;;5.25;4.78;;;13.60;99.90;;;;;;5018369;28;20503;-50
2021/10/17 11:02:18;;;;;;;8.40;5.78;;;13.50;99.90;;;;;;5021259;28;20577;-51
2021/10/17 11:04:46;;;;;;;5.28;4.75;;;13.60;99.90;;;;;;5017320;28;20229;-49
2021/10/17 11:07:39;;;;;;;9.40;6.82;;;13.60;99.90;;;;;;5016712;28;20269;-47
2021/10/17 11:10:22;;;;;;;6.75;5.35;;;13.80;99.90;;;;;;5019981;28;20248;-49
2021/10/17 11:12:55;;;;;;;5.00;4.70;;;13.90;99.90;;;;;;5019776;28;20268;-48
2021/10/17 11:15:24;;;;;;;4.50;4.20;;;14.00;99.90;;;;;;5021002;28;20216;-52
2021/10/17 11:18:07;;;;;;;4.53;4.13;;;14.20;99.90;;;;;;5019771;28;20555;-50
2021/10/17 11:20:39;;;;;;;5.57;5.15;;;14.30;99.90;;;;;;5021091;28;20204;-50
2021/10/17 11:23:17;;;;;;;4.60;4.30;;;14.30;99.90;;;;;;5020178;28;20193;-48
2021/10/17 11:25:58;;;;;;;4.70;4.43;;;14.40;99.90;;;;;;5018166;28;20271;-50
2021/10/17 11:28:27;;;;;;;4.18;3.90;;;14.60;99.90;;;;;;5020427;28;20209;-47
2021/10/17 11:31:04;;;;;;;3.53;3.33;;;14.70;99.90;;;;;;5020591;28;20205;-50
2021/10/17 11:33:32;;;;;;;5.10;4.65;;;14.70;99.90;;;;;;5017764;28;20204;-50
2021/10/17 11:35:59;;;;;;;5.45;4.65;;;14.80;99.90;;;;;;5027991;28;20285;-50
2021/10/17 11:38:27;;;;;;;4.30;4.00;;;14.90;99.90;;;;;;5022164;28;20217;-47
2021/10/17 11:41:04;;;;;;;4.78;4.38;;;15.10;99.90;;;;;;5019871;28;20218;-47
2021/10/17 11:43:34;;;;;;;8.70;6.60;;;15.10;99.90;;;;;;5015793;28;20196;-46
2021/10/17 11:46:04;;;;;;;4.70;4.30;;;15.30;99.90;;;;;;5019796;28;20216;-50
2021/10/17 11:48:33;;;;;;;5.57;5.07;;;15.10;99.90;;;;;;5020205;28;20243;-50
2021/10/17 11:51:06;;;;;;;5.10;4.55;;;15.00;99.90;;;;;;5020141;28;20204;-48
2021/10/17 11:53:34;;;;;;;4.53;4.15;;;14.80;99.90;;;;;;5020449;28;20235;-54
2021/10/17 11:56:02;;;;;;;4.60;4.28;;;15.00;99.90;;;;;;5020003;28;20228;-53
2021/10/17 11:58:30;;;;;;;5.72;4.80;;;15.10;99.90;;;;;;5019772;28;20197;-52
2021/10/17 12:01:18;;;;;;;4.80;4.40;;;15.20;99.90;;;;;;5019199;28;20565;-53
2021/10/17 12:03:55;;;;;;;6.55;5.20;;;15.10;99.90;;;;;;5020230;28;20402;-51
2021/10/17 12:06:23;;;;;;;8.45;4.30;;;15.30;99.90;;;;;;5019606;28;20225;-48
2021/10/17 12:08:56;;;;;;;5.10;4.80;;;15.20;99.90;;;;;;5019929;28;20232;-53
2021/10/17 12:11:24;;;;;;;6.57;6.20;;;15.00;99.90;;;;;;5012417;28;20201;-51
2021/10/17 12:13:53;;;;;;;5.25;5.05;;;14.70;99.90;;;;;;5019822;28;20205;-55
2021/10/17 12:16:25;;;;;;;5.75;5.10;;;14.90;99.90;;;;;;5026082;28;20217;-49
2021/10/17 12:19:05;;;;;;;5.15;4.85;;;15.00;99.90;;;;;;5019595;28;20263;-51
2021/10/17 12:21:41;;;;;;;7.90;5.97;;;15.10;99.90;;;;;;5027359;28;20209;-50
2021/10/17 12:24:09;;;;;;;5.32;4.85;;;15.00;99.90;;;;;;5019404;28;20208;-51
2021/10/17 12:26:47;;;;;;;5.70;5.30;;;14.90;99.90;;;;;;5010243;28;20205;-50
2021/10/17 12:29:16;;;;;;;4.95;4.65;;;14.70;99.90;;;;;;5014745;28;20239;-52
2021/10/17 12:31:53;;;;;;;4.95;4.55;;;14.60;99.90;;;;;;5018876;28;20189;-52
2021/10/17 12:34:46;;;;;;;6.10;5.55;;;14.40;99.90;;;;;;5017254;28;20197;-52
2021/10/17 12:37:18;;;;;;;5.47;5.15;;;14.40;99.90;;;;;;5019533;28;20228;-47
2021/10/17 12:39:46;;;;;;;5.75;5.25;;;14.40;99.90;;;;;;5017454;28;20201;-51
2021/10/17 12:42:14;;;;;;;5.55;5.18;;;14.40;99.90;;;;;;5017715;28;20568;-46
2021/10/17 12:45:01;;;;;;;5.85;5.45;;;14.30;99.90;;;;;;5015497;28;20539;-51
2021/10/17 12:47:41;;;;;;;7.13;5.13;;;14.40;99.90;;;;;;5013371;28;20369;-48
2021/10/17 12:50:14;;;;;;;5.03;4.63;;;14.50;99.90;;;;;;5017681;28;20220;-49
2021/10/17 12:52:41;;;;;;;5.28;4.88;;;14.30;99.90;;;;;;5014316;28;20200;-49